sensor_id;sensor_type;location;lat;lon;timestamp;pressure;altitude;pressure_sealevel;temperature;humidity
59829;BME280;45708;51.848;107.620;2022-08-24T00:01:32;95032.75;;;10.71;74.86
59829;BME280;45708;51.848;107.620;2022-08-24T00:06:32;95041.03;;;10.56;75.86
59829;BME280;45708;51.848;107.620;2022-08-24T00:11:33;95054.75;;;10.46;73.70
59829;BME280;45708;51.848;107.620;2022-08-24T00:16:34;95055.84;;;10.39;73.37
59829;BME280;45708;51.848;107.620;2022-08-24T00:21:35;95050.56;;;10.39;73.55
59829;BME280;45708;51.848;107.620;2022-08-24T00:26:37;95053.88;;;10.71;74.59
59829;BME280;45708;51.848;107.620;2022-08-24T00:31:38;95053.31;;;10.87;73.58
59829;BME280;45708;51.848;107.620;2022-08-24T00:36:40;95054.09;;;10.87;69.26
59829;BME280;45708;51.848;107.620;2022-08-24T00:41:43;95054.09;;;10.87;70.69
59829;BME280;45708;51.848;107.620;2022-08-24T00:46:50;95055.41;;;10.96;69.81
59829;BME280;45708;51.848;107.620;2022-08-24T00:57:06;95042.31;;;11.20;71.91
59829;BME280;45708;51.848;107.620;2022-08-24T01:02:13;95026.78;;;11.53;69.94
59829;BME280;45708;51.848;107.620;2022-08-24T01:07:15;95051.69;;;11.76;69.52
59829;BME280;45708;51.848;107.620;2022-08-24T01:12:16;95040.75;;;12.02;68.58
59829;BME280;45708;51.848;107.620;2022-08-24T01:17:17;95048.09;;;12.70;66.20
59829;BME280;45708;51.848;107.620;2022-08-24T01:27:49;95046.81;;;12.61;67.57
59829;BME280;45708;51.848;107.620;2022-08-24T01:32:57;95048.34;;;12.22;65.00
59829;BME280;45708;51.848;107.620;2022-08-24T01:38:00;95046.13;;;11.84;63.76
59829;BME280;45708;51.848;107.620;2022-08-24T01:43:03;95056.94;;;11.82;65.10
59829;BME280;45708;51.848;107.620;2022-08-24T01:48:05;95046.41;;;11.76;65.04
59829;BME280;45708;51.848;107.620;2022-08-24T01:53:06;95020.59;;;11.59;65.76
59829;BME280;45708;51.848;107.620;2022-08-24T01:58:07;95043.38;;;11.61;66.68
59829;BME280;45708;51.848;107.620;2022-08-24T02:03:08;95049.09;;;11.57;66.59
59829;BME280;45708;51.848;107.620;2022-08-24T02:08:09;95035.94;;;11.39;66.36
59829;BME280;45708;51.848;107.620;2022-08-24T02:13:10;95051.97;;;11.56;67.35
59829;BME280;45708;51.848;107.620;2022-08-24T02:18:11;95041.66;;;11.66;67.38
59829;BME280;45708;51.848;107.620;2022-08-24T02:23:12;95030.81;;;11.86;66.31
59829;BME280;45708;51.848;107.620;2022-08-24T02:28:13;95026.47;;;12.03;65.53
59829;BME280;45708;51.848;107.620;2022-08-24T02:33:14;95027.03;;;12.17;65.17
59829;BME280;45708;51.848;107.620;2022-08-24T02:38:15;95037.06;;;12.27;64.88
59829;BME280;45708;51.848;107.620;2022-08-24T02:43:16;95019.09;;;12.17;64.65
59829;BME280;45708;51.848;107.620;2022-08-24T02:48:17;95012.75;;;12.18;63.68
59829;BME280;45708;51.848;107.620;2022-08-24T02:53:20;95016.09;;;12.37;63.71
59829;BME280;45708;51.848;107.620;2022-08-24T02:58:21;95017.94;;;12.48;63.36
59829;BME280;45708;51.848;107.620;2022-08-24T03:03:21;94994.44;;;12.16;61.18
59829;BME280;45708;51.848;107.620;2022-08-24T03:08:22;95001.59;;;12.28;59.90
59829;BME280;45708;51.848;107.620;2022-08-24T03:13:23;95005.59;;;12.65;58.80
59829;BME280;45708;51.848;107.620;2022-08-24T03:18:25;95000.22;;;13.17;57.01
59829;BME280;45708;51.848;107.620;2022-08-24T03:23:26;95005.53;;;13.17;55.96
59829;BME280;45708;51.848;107.620;2022-08-24T03:28:27;94978.56;;;13.20;56.22
59829;BME280;45708;51.848;107.620;2022-08-24T03:33:28;94994.28;;;13.38;55.93
59829;BME280;45708;51.848;107.620;2022-08-24T03:38:29;95002.28;;;13.55;54.92
59829;BME280;45708;51.848;107.620;2022-08-24T03:43:30;94997.47;;;13.52;54.45
59829;BME280;45708;51.848;107.620;2022-08-24T03:48:31;94989.72;;;13.51;53.76
59829;BME280;45708;51.848;107.620;2022-08-24T03:53:32;94982.19;;;13.43;53.73
59829;BME280;45708;51.848;107.620;2022-08-24T03:58:34;94969.25;;;13.63;52.89
59829;BME280;45708;51.848;107.620;2022-08-24T04:03:40;94977.53;;;13.83;52.52
59829;BME280;45708;51.848;107.620;2022-08-24T04:08:42;94957.91;;;13.84;52.16
59829;BME280;45708;51.848;107.620;2022-08-24T04:13:44;94970.03;;;14.14;51.81
59829;BME280;45708;51.848;107.620;2022-08-24T04:18:46;94971.69;;;14.20;51.71
59829;BME280;45708;51.848;107.620;2022-08-24T04:23:48;94953.13;;;14.58;50.81
59829;BME280;45708;51.848;107.620;2022-08-24T04:28:49;94945.16;;;14.58;49.80
59829;BME280;45708;51.848;107.620;2022-08-24T04:33:51;94947.38;;;14.45;49.16
59829;BME280;45708;51.848;107.620;2022-08-24T04:38:52;94957.03;;;14.34;47.99
59829;BME280;45708;51.848;107.620;2022-08-24T04:43:52;94958.56;;;14.30;48.21
59829;BME280;45708;51.848;107.620;2022-08-24T04:48:54;94946.63;;;14.49;48.40
59829;BME280;45708;51.848;107.620;2022-08-24T04:53:55;94940.09;;;14.40;48.84
59829;BME280;45708;51.848;107.620;2022-08-24T04:58:56;94919.06;;;14.55;49.41
59829;BME280;45708;51.848;107.620;2022-08-24T05:03:57;94921.41;;;14.74;49.02
59829;BME280;45708;51.848;107.620;2022-08-24T05:08:58;94929.44;;;14.57;48.81
59829;BME280;45708;51.848;107.620;2022-08-24T05:13:59;94924.53;;;14.44;49.13
59829;BME280;45708;51.848;107.620;2022-08-24T05:19:00;94918.16;;;14.67;48.94
59829;BME280;45708;51.848;107.620;2022-08-24T05:24:02;94913.06;;;14.87;48.35
59829;BME280;45708;51.848;107.620;2022-08-24T05:29:03;94895.28;;;14.66;48.45
59829;BME280;45708;51.848;107.620;2022-08-24T05:34:04;94925.19;;;14.39;48.94
59829;BME280;45708;51.848;107.620;2022-08-24T05:39:11;94928.28;;;14.31;49.42
59829;BME280;45708;51.848;107.620;2022-08-24T05:44:14;94919.44;;;14.04;49.33
59829;BME280;45708;51.848;107.620;2022-08-24T05:49:15;94920.31;;;13.92;50.11
59829;BME280;45708;51.848;107.620;2022-08-24T05:54:16;94910.94;;;13.68;50.86
59829;BME280;45708;51.848;107.620;2022-08-24T05:59:17;94904.34;;;13.54;50.78
59829;BME280;45708;51.848;107.620;2022-08-24T06:04:18;94906.97;;;13.87;50.73
59829;BME280;45708;51.848;107.620;2022-08-24T06:09:19;94874.84;;;14.71;49.70
59829;BME280;45708;51.848;107.620;2022-08-24T06:14:20;94879.31;;;15.19;48.89
59829;BME280;45708;51.848;107.620;2022-08-24T06:19:21;94874.31;;;15.23;48.24
59829;BME280;45708;51.848;107.620;2022-08-24T06:24:22;94865.97;;;15.14;47.97
59829;BME280;45708;51.848;107.620;2022-08-24T06:29:23;94853.50;;;14.88;48.69
59829;BME280;45708;51.848;107.620;2022-08-24T06:34:24;94861.66;;;14.38;49.07
59829;BME280;45708;51.848;107.620;2022-08-24T06:39:25;94848.88;;;14.13;49.58
59829;BME280;45708;51.848;107.620;2022-08-24T06:44:26;94862.44;;;14.55;50.01
59829;BME280;45708;51.848;107.620;2022-08-24T06:49:27;94855.19;;;14.99;48.86
59829;BME280;45708;51.848;107.620;2022-08-24T06:54:28;94846.28;;;15.15;47.86
59829;BME280;45708;51.848;107.620;2022-08-24T06:59:29;94836.84;;;15.30;47.79
59829;BME280;45708;51.848;107.620;2022-08-24T07:04:30;94822.75;;;15.66;47.21
59829;BME280;45708;51.848;107.620;2022-08-24T07:09:31;94813.38;;;15.59;47.24
59829;BME280;45708;51.848;107.620;2022-08-24T07:14:32;94824.84;;;15.59;46.57
59829;BME280;45708;51.848;107.620;2022-08-24T07:19:33;94810.22;;;15.30;47.11
59829;BME280;45708;51.848;107.620;2022-08-24T07:24:34;94810.06;;;15.09;47.36
59829;BME280;45708;51.848;107.620;2022-08-24T07:29:35;94782.25;;;14.41;48.05
59829;BME280;45708;51.848;107.620;2022-08-24T07:34:36;94803.91;;;14.28;48.87
59829;BME280;45708;51.848;107.620;2022-08-24T07:39:37;94800.81;;;14.14;48.85
59829;BME280;45708;51.848;107.620;2022-08-24T07:44:38;94791.44;;;14.50;48.34
59829;BME280;45708;51.848;107.620;2022-08-24T07:49:40;94788.13;;;14.65;48.46
59829;BME280;45708;51.848;107.620;2022-08-24T07:54:40;94789.53;;;14.73;48.83
59829;BME280;45708;51.848;107.620;2022-08-24T07:59:41;94798.31;;;14.46;49.46
59829;BME280;45708;51.848;107.620;2022-08-24T08:04:42;94794.66;;;14.09;50.59
59829;BME280;45708;51.848;107.620;2022-08-24T08:09:43;94773.34;;;14.04;50.51
59829;BME280;45708;51.848;107.620;2022-08-24T08:14:44;94734.00;;;14.00;50.59
59829;BME280;45708;51.848;107.620;2022-08-24T08:19:45;94769.94;;;14.30;50.62
59829;BME280;45708;51.848;107.620;2022-08-24T08:24:46;94767.09;;;14.15;50.72
59829;BME280;45708;51.848;107.620;2022-08-24T08:29:47;94777.38;;;13.84;51.29
59829;BME280;45708;51.848;107.620;2022-08-24T08:34:48;94784.69;;;13.38;52.21
59829;BME280;45708;51.848;107.620;2022-08-24T08:39:49;94794.28;;;13.23;53.39
59829;BME280;45708;51.848;107.620;2022-08-24T08:50:20;94741.22;;;13.06;53.64
59829;BME280;45708;51.848;107.620;2022-08-24T09:26:58;94760.22;;;13.53;51.75
59829;BME280;45708;51.848;107.620;2022-08-24T09:37:57;94752.31;;;12.86;52.35
59829;BME280;45708;51.848;107.620;2022-08-24T09:54:23;94740.66;;;12.70;53.29
59829;BME280;45708;51.848;107.620;2022-08-24T10:32:19;94750.94;;;9.63;64.95
59829;BME280;45708;51.848;107.620;2022-08-24T10:53:33;94740.22;;;9.39;66.97
59829;BME280;45708;51.848;107.620;2022-08-24T11:04:11;94752.59;;;9.57;67.86
59829;BME280;45708;51.848;107.620;2022-08-24T11:09:16;94747.53;;;9.74;68.67
59829;BME280;45708;51.848;107.620;2022-08-24T11:14:28;94763.44;;;9.86;68.91
59829;BME280;45708;51.848;107.620;2022-08-24T11:19:32;94771.25;;;9.92;69.06
59829;BME280;45708;51.848;107.620;2022-08-24T11:24:44;94762.84;;;9.84;69.60
59829;BME280;45708;51.848;107.620;2022-08-24T11:34:50;94752.00;;;9.73;69.89
59829;BME280;45708;51.848;107.620;2022-08-24T11:39:51;94745.13;;;9.72;70.68
59829;BME280;45708;51.848;107.620;2022-08-24T11:45:09;94739.03;;;9.72;71.59
59829;BME280;45708;51.848;107.620;2022-08-24T11:50:39;94737.53;;;9.64;70.66
59829;BME280;45708;51.848;107.620;2022-08-24T12:11:43;94738.84;;;9.55;69.48
59829;BME280;45708;51.848;107.620;2022-08-24T12:16:59;94735.97;;;9.57;69.05
59829;BME280;45708;51.848;107.620;2022-08-24T12:22:04;94735.63;;;9.53;69.36
59829;BME280;45708;51.848;107.620;2022-08-24T12:32:42;94742.94;;;9.69;68.79
59829;BME280;45708;51.848;107.620;2022-08-24T12:53:41;94748.13;;;9.58;67.71
59829;BME280;45708;51.848;107.620;2022-08-24T12:58:52;94736.66;;;9.52;68.38
59829;BME280;45708;51.848;107.620;2022-08-24T13:04:15;94733.66;;;9.49;68.42
59829;BME280;45708;51.848;107.620;2022-08-24T13:09:31;94734.91;;;9.46;68.29
59829;BME280;45708;51.848;107.620;2022-08-24T13:14:33;94724.03;;;9.36;68.54
59829;BME280;45708;51.848;107.620;2022-08-24T13:19:39;94735.34;;;9.43;68.99
59829;BME280;45708;51.848;107.620;2022-08-24T13:24:45;94739.28;;;9.52;68.67
59829;BME280;45708;51.848;107.620;2022-08-24T13:30:16;94723.00;;;9.55;68.59
59829;BME280;45708;51.848;107.620;2022-08-24T13:40:48;94717.59;;;9.68;67.96
59829;BME280;45708;51.848;107.620;2022-08-24T13:45:56;94698.56;;;9.66;67.70
59829;BME280;45708;51.848;107.620;2022-08-24T14:07:20;94716.69;;;9.74;67.99
59829;BME280;45708;51.848;107.620;2022-08-24T14:22:54;94708.16;;;9.91;67.49
59829;BME280;45708;51.848;107.620;2022-08-24T14:38:25;94681.13;;;9.65;68.15
59829;BME280;45708;51.848;107.620;2022-08-24T15:11:11;94671.31;;;9.36;68.91
59829;BME280;45708;51.848;107.620;2022-08-24T15:32:15;94651.56;;;9.27;69.59
59829;BME280;45708;51.848;107.620;2022-08-24T15:42:30;94649.38;;;9.24;70.02
59829;BME280;45708;51.848;107.620;2022-08-24T15:47:38;94648.06;;;9.14;70.68
59829;BME280;45708;51.848;107.620;2022-08-24T15:52:42;94641.28;;;9.07;70.06
59829;BME280;45708;51.848;107.620;2022-08-24T15:57:44;94633.88;;;8.97;71.38
59829;BME280;45708;51.848;107.620;2022-08-24T16:02:45;94624.06;;;8.86;71.54
59829;BME280;45708;51.848;107.620;2022-08-24T16:08:12;94628.31;;;8.87;71.84
59829;BME280;45708;51.848;107.620;2022-08-24T16:18:18;94624.06;;;8.86;72.68
59829;BME280;45708;51.848;107.620;2022-08-24T16:23:25;94626.25;;;8.71;72.84
59829;BME280;45708;51.848;107.620;2022-08-24T16:38:32;94632.44;;;8.33;75.81
59829;BME280;45708;51.848;107.620;2022-08-24T16:43:35;94640.41;;;8.27;76.50
59829;BME280;45708;51.848;107.620;2022-08-24T16:48:37;94633.84;;;8.11;77.60
59829;BME280;45708;51.848;107.620;2022-08-24T16:53:38;94621.38;;;8.00;79.29
59829;BME280;45708;51.848;107.620;2022-08-24T16:58:40;94634.53;;;8.00;80.62
59829;BME280;45708;51.848;107.620;2022-08-24T17:03:41;94637.00;;;7.94;82.08
59829;BME280;45708;51.848;107.620;2022-08-24T17:08:42;94627.78;;;7.85;83.20
59829;BME280;45708;51.848;107.620;2022-08-24T17:13:43;94629.03;;;7.76;84.61
59829;BME280;45708;51.848;107.620;2022-08-24T17:18:44;94619.00;;;7.67;85.44
59829;BME280;45708;51.848;107.620;2022-08-24T17:23:46;94626.66;;;7.68;85.81
59829;BME280;45708;51.848;107.620;2022-08-24T17:28:48;94622.44;;;7.67;86.08
59829;BME280;45708;51.848;107.620;2022-08-24T17:33:54;94602.88;;;7.56;86.42
59829;BME280;45708;51.848;107.620;2022-08-24T17:38:55;94611.56;;;7.57;86.59
59829;BME280;45708;51.848;107.620;2022-08-24T17:43:56;94607.31;;;7.62;87.25
59829;BME280;45708;51.848;107.620;2022-08-24T17:48:57;94578.84;;;7.53;87.07
59829;BME280;45708;51.848;107.620;2022-08-24T17:53:58;94588.69;;;7.64;87.37
59829;BME280;45708;51.848;107.620;2022-08-24T17:58:59;94579.78;;;7.65;87.95
59829;BME280;45708;51.848;107.620;2022-08-24T18:04:00;94555.19;;;7.53;87.65
59829;BME280;45708;51.848;107.620;2022-08-24T18:09:04;94569.06;;;7.67;88.03
59829;BME280;45708;51.848;107.620;2022-08-24T18:14:05;94542.63;;;7.55;88.20
59829;BME280;45708;51.848;107.620;2022-08-24T18:19:07;94561.97;;;7.67;88.52
59829;BME280;45708;51.848;107.620;2022-08-24T18:24:08;94565.63;;;7.66;88.56
59829;BME280;45708;51.848;107.620;2022-08-24T18:29:12;94561.97;;;7.67;88.87
59829;BME280;45708;51.848;107.620;2022-08-24T18:34:17;94558.75;;;7.65;88.98
59829;BME280;45708;51.848;107.620;2022-08-24T18:39:19;94551.03;;;7.70;88.70
59829;BME280;45708;51.848;107.620;2022-08-24T18:44:22;94546.94;;;7.74;89.11
59829;BME280;45708;51.848;107.620;2022-08-24T18:49:23;94549.19;;;7.71;89.44
59829;BME280;45708;51.848;107.620;2022-08-24T18:54:28;94550.28;;;7.63;89.73
59829;BME280;45708;51.848;107.620;2022-08-24T18:59:32;94563.56;;;7.68;89.87
59829;BME280;45708;51.848;107.620;2022-08-24T19:04:38;94569.47;;;7.63;89.83
59829;BME280;45708;51.848;107.620;2022-08-24T19:09:41;94563.66;;;7.55;90.58
59829;BME280;45708;51.848;107.620;2022-08-24T19:14:42;94555.44;;;7.45;90.66
59829;BME280;45708;51.848;107.620;2022-08-24T19:19:43;94552.41;;;7.48;90.04
59829;BME280;45708;51.848;107.620;2022-08-24T19:24:45;94554.22;;;7.47;89.98
59829;BME280;45708;51.848;107.620;2022-08-24T19:29:46;94556.41;;;7.50;90.81
59829;BME280;45708;51.848;107.620;2022-08-24T19:34:47;94521.38;;;7.31;90.67
59829;BME280;45708;51.848;107.620;2022-08-24T19:39:48;94551.38;;;7.49;90.75
59829;BME280;45708;51.848;107.620;2022-08-24T19:44:49;94557.22;;;7.51;90.95
59829;BME280;45708;51.848;107.620;2022-08-24T19:49:50;94541.66;;;7.49;90.21
59829;BME280;45708;51.848;107.620;2022-08-24T19:54:51;94526.91;;;7.48;90.96
59829;BME280;45708;51.848;107.620;2022-08-24T19:59:57;94530.88;;;7.57;90.74
59829;BME280;45708;51.848;107.620;2022-08-24T20:04:58;94526.78;;;7.68;91.14
59829;BME280;45708;51.848;107.620;2022-08-24T20:09:59;94521.28;;;7.70;90.25
59829;BME280;45708;51.848;107.620;2022-08-24T20:15:00;94514.59;;;7.74;90.17
59829;BME280;45708;51.848;107.620;2022-08-24T20:20:03;94521.66;;;7.73;89.99
59829;BME280;45708;51.848;107.620;2022-08-24T20:25:05;94510.56;;;7.71;90.66
59829;BME280;45708;51.848;107.620;2022-08-24T20:30:06;94514.22;;;7.70;90.41
59829;BME280;45708;51.848;107.620;2022-08-24T20:35:08;94516.63;;;7.72;90.33
59829;BME280;45708;51.848;107.620;2022-08-24T20:40:12;94510.56;;;7.71;90.20
59829;BME280;45708;51.848;107.620;2022-08-24T20:45:13;94517.00;;;7.75;90.45
59829;BME280;45708;51.848;107.620;2022-08-24T20:50:20;94521.09;;;7.71;90.10
59829;BME280;45708;51.848;107.620;2022-08-24T20:55:21;94516.69;;;7.65;90.41
59829;BME280;45708;51.848;107.620;2022-08-24T21:00:22;94515.88;;;7.65;89.75
59829;BME280;45708;51.848;107.620;2022-08-24T21:05:24;94495.31;;;7.55;89.64
59829;BME280;45708;51.848;107.620;2022-08-24T21:10:25;94492.09;;;7.53;89.82
59829;BME280;45708;51.848;107.620;2022-08-24T21:15:26;94527.66;;;7.55;89.61
59829;BME280;45708;51.848;107.620;2022-08-24T21:20:27;94509.69;;;7.27;89.79
59829;BME280;45708;51.848;107.620;2022-08-24T21:25:28;94505.34;;;7.08;90.02
59829;BME280;45708;51.848;107.620;2022-08-24T21:30:29;94514.09;;;7.02;89.90
59829;BME280;45708;51.848;107.620;2022-08-24T21:35:30;94517.91;;;6.99;90.41
59829;BME280;45708;51.848;107.620;2022-08-24T21:40:31;94505.03;;;6.91;90.63
59829;BME280;45708;51.848;107.620;2022-08-24T21:45:32;94517.31;;;7.04;90.46
59829;BME280;45708;51.848;107.620;2022-08-24T21:50:34;94542.94;;;7.09;90.97
59829;BME280;45708;51.848;107.620;2022-08-24T21:55:35;94533.81;;;7.11;91.27
59829;BME280;45708;51.848;107.620;2022-08-24T22:00:36;94538.84;;;7.13;91.24
59829;BME280;45708;51.848;107.620;2022-08-24T22:05:37;94525.09;;;7.17;91.54
59829;BME280;45708;51.848;107.620;2022-08-24T22:10:38;94514.59;;;7.17;91.18
59829;BME280;45708;51.848;107.620;2022-08-24T22:15:39;94526.31;;;7.21;90.82
59829;BME280;45708;51.848;107.620;2022-08-24T22:20:42;94532.53;;;7.20;91.38
59829;BME280;45708;51.848;107.620;2022-08-24T22:25:43;94518.22;;;7.16;91.59
59829;BME280;45708;51.848;107.620;2022-08-24T22:30:44;94527.28;;;7.20;91.69
59829;BME280;45708;51.848;107.620;2022-08-24T22:35:45;94523.25;;;7.24;91.71
59829;BME280;45708;51.848;107.620;2022-08-24T22:40:52;94540.94;;;7.36;91.94
59829;BME280;45708;51.848;107.620;2022-08-24T22:45:53;94518.16;;;7.29;91.48
59829;BME280;45708;51.848;107.620;2022-08-24T22:50:54;94528.97;;;7.40;91.37
59829;BME280;45708;51.848;107.620;2022-08-24T22:55:55;94529.38;;;7.43;91.59
59829;BME280;45708;51.848;107.620;2022-08-24T23:00:56;94534.16;;;7.53;91.95
59829;BME280;45708;51.848;107.620;2022-08-24T23:05:57;94529.91;;;7.52;91.62
59829;BME280;45708;51.848;107.620;2022-08-24T23:10:57;94519.25;;;7.47;92.16
59829;BME280;45708;51.848;107.620;2022-08-24T23:15:59;94517.06;;;7.69;92.45
59829;BME280;45708;51.848;107.620;2022-08-24T23:21:00;94527.94;;;7.72;92.35
59829;BME280;45708;51.848;107.620;2022-08-24T23:26:03;94519.97;;;7.85;92.08
59829;BME280;45708;51.848;107.620;2022-08-24T23:31:05;94512.28;;;7.84;91.77
59829;BME280;45708;51.848;107.620;2022-08-24T23:36:13;94524.06;;;8.00;92.55
59829;BME280;45708;51.848;107.620;2022-08-24T23:41:16;94525.47;;;8.02;92.46
59829;BME280;45708;51.848;107.620;2022-08-24T23:46:18;94525.88;;;7.99;92.26
59829;BME280;45708;51.848;107.620;2022-08-24T23:51:19;94517.41;;;7.97;92.49
59829;BME280;45708;51.848;107.620;2022-08-24T23:56:31;94509.75;;;7.96;92.54
